Terminal Aerodrome Forecast
Issued by NWS Albany, NY

Home | Current Version | Previous Version | Text Only | Print | Product List | Glossary On
Versions: 1 2 3 4 5 6 7 8 9 10 11 12 13 14 15 16 17
000
FTUS41 KALY 311100
TAFPOU
TAF
KPOU 311129Z 3112/0112 22005KT P6SM VCSH BKN050 BKN100
     FM311600 21008KT P6SM VCSH BKN040 OVC080
     FM312100 22005KT P6SM SCT050 SCT100
     FM010600 00000KT 4SM BR SCT250=

USA.gov is the U.S. government's official web portal to all federal, state and local government web resources and services.